Terminal Aerodrome Forecast
Issued by NWS Grand Junction, CO

Home | Current Version | Previous Version | Text Only | Print | Product List | Glossary On
Versions: 1 2 3 4 5 6 7 8 9 10 11 12 13 14 15 16 17 18 19 20 21 22 23 24 25 26 27 28 29 30 31 32
000
FTUS45 KGJT 300530
TAFGJT
TAF
KGJT 300530Z 3006/3106 11008KT P6SM SCT200
     FM301600 15006KT P6SM FEW120 BKN200
     FM301800 22010KT P6SM SCT100 BKN200
     FM302100 27010KT P6SM VCTS SCT070CB BKN150
     FM310200 09006KT P6SM VCTS SCT070CB BKN100=

USA.gov is the U.S. government's official web portal to all federal, state and local government web resources and services.